Terminal Aerodrome Forecast
Issued by NWS Charleston, WV

Current Version | Previous Version | Graphics & Text | Print | Product List | Glossary On
Versions: 1 2 3 4 5 6 7 8 9 10 11 12 13 14 15 16 17 18 19 20 21 22 23 24 25
000
FTUS41 KRLX 281400 AAA
TAFEKN
TAF AMD
KEKN 281436Z 2815/2912 28011G17KT P6SM VCSH BKN025
     FM281900 28011G17KT 5SM -SHRA VCTS BKN040CB
     FM282300 29007KT P6SM VCSH BKN060
     FM290100 29006KT P6SM BKN080
     FM290400 31005KT 3SM BR SCT080
     FM290600 30004KT 1SM BR SCT003
     FM290700 VRB03KT 1/4SM FG VV001=

USA.gov is the U.S. government's official web portal to all federal, state and local government web resources and services.